sensor_id;sensor_type;location;lat;lon;timestamp;noise_LAeq;noise_LA_min;noise_LA_max;noise_LA01;noise_LA95
66399;Laerm;54877;51.504;3.894;2023-02-01T00:01:15;31.87;28.80;41.65;;
66399;Laerm;54877;51.504;3.894;2023-02-01T00:03:40;32.16;29.56;41.56;;
66399;Laerm;54877;51.504;3.894;2023-02-01T00:06:06;31.71;29.22;43.10;;
66399;Laerm;54877;51.504;3.894;2023-02-01T00:08:31;31.69;29.56;36.31;;
66399;Laerm;54877;51.504;3.894;2023-02-01T00:11:03;56.87;29.93;75.78;;
66399;Laerm;54877;51.504;3.894;2023-02-01T00:13:29;33.53;30.32;43.18;;
66399;Laerm;54877;51.504;3.894;2023-02-01T00:16:01;33.35;30.50;44.51;;
66399;Laerm;54877;51.504;3.894;2023-02-01T00:18:26;33.38;30.66;48.87;;
66399;Laerm;54877;51.504;3.894;2023-02-01T00:20:52;33.61;31.24;39.21;;
66399;Laerm;54877;51.504;3.894;2023-02-01T00:23:17;33.08;30.74;42.82;;
66399;Laerm;54877;51.504;3.894;2023-02-01T00:25:42;33.56;31.30;45.02;;
66399;Laerm;54877;51.504;3.894;2023-02-01T00:28:07;33.54;31.30;43.05;;
66399;Laerm;54877;51.504;3.894;2023-02-01T00:30:32;33.88;31.58;49.67;;
66399;Laerm;54877;51.504;3.894;2023-02-01T00:32:57;35.06;32.10;44.33;;
66399;Laerm;54877;51.504;3.894;2023-02-01T00:35:23;34.51;32.03;42.37;;
66399;Laerm;54877;51.504;3.894;2023-02-01T00:37:48;34.84;32.11;45.64;;
66399;Laerm;54877;51.504;3.894;2023-02-01T00:40:13;35.34;31.92;44.75;;
66399;Laerm;54877;51.504;3.894;2023-02-01T00:42:38;35.00;32.20;43.37;;
66399;Laerm;54877;51.504;3.894;2023-02-01T00:45:05;34.31;31.81;38.67;;
66399;Laerm;54877;51.504;3.894;2023-02-01T00:47:30;33.83;31.48;40.21;;
66399;Laerm;54877;51.504;3.894;2023-02-01T00:49:55;33.74;31.55;41.26;;
66399;Laerm;54877;51.504;3.894;2023-02-01T00:52:20;33.28;31.32;37.92;;
66399;Laerm;54877;51.504;3.894;2023-02-01T00:54:46;33.51;31.54;37.41;;
66399;Laerm;54877;51.504;3.894;2023-02-01T00:57:11;34.04;31.12;41.39;;
66399;Laerm;54877;51.504;3.894;2023-02-01T00:59:36;34.46;31.44;43.17;;
66399;Laerm;54877;51.504;3.894;2023-02-01T01:02:01;34.27;31.22;49.60;;
66399;Laerm;54877;51.504;3.894;2023-02-01T01:04:26;33.83;31.16;41.12;;
66399;Laerm;54877;51.504;3.894;2023-02-01T01:06:52;33.95;31.12;43.58;;
66399;Laerm;54877;51.504;3.894;2023-02-01T01:09:17;33.99;31.25;44.59;;
66399;Laerm;54877;51.504;3.894;2023-02-01T01:11:42;32.90;30.56;36.13;;
66399;Laerm;54877;51.504;3.894;2023-02-01T01:14:08;33.67;31.05;40.49;;
66399;Laerm;54877;51.504;3.894;2023-02-01T01:16:33;33.38;31.03;42.16;;
66399;Laerm;54877;51.504;3.894;2023-02-01T01:18:58;33.65;30.62;39.12;;
66399;Laerm;54877;51.504;3.894;2023-02-01T01:21:24;34.01;30.65;40.05;;
66399;Laerm;54877;51.504;3.894;2023-02-01T01:23:49;34.51;30.79;45.76;;
66399;Laerm;54877;51.504;3.894;2023-02-01T01:26:19;33.35;30.12;39.51;;
66399;Laerm;54877;51.504;3.894;2023-02-01T01:28:45;32.53;29.93;42.09;;
66399;Laerm;54877;51.504;3.894;2023-02-01T01:31:11;32.84;29.72;42.60;;
66399;Laerm;54877;51.504;3.894;2023-02-01T01:33:37;32.57;30.03;37.55;;
66399;Laerm;54877;51.504;3.894;2023-02-01T01:36:04;46.17;31.58;65.10;;
66399;Laerm;54877;51.504;3.894;2023-02-01T01:38:29;36.80;31.66;50.22;;
66399;Laerm;54877;51.504;3.894;2023-02-01T01:40:54;35.04;31.43;44.32;;
66399;Laerm;54877;51.504;3.894;2023-02-01T01:43:20;35.18;31.18;44.67;;
66399;Laerm;54877;51.504;3.894;2023-02-01T01:45:47;33.91;30.86;41.04;;
66399;Laerm;54877;51.504;3.894;2023-02-01T01:50:40;35.06;30.83;46.90;;
66399;Laerm;54877;51.504;3.894;2023-02-01T01:53:07;35.56;30.79;48.34;;
66399;Laerm;54877;51.504;3.894;2023-02-01T01:55:35;35.25;30.58;45.62;;
66399;Laerm;54877;51.504;3.894;2023-02-01T01:58:03;37.77;31.68;51.56;;
66399;Laerm;54877;51.504;3.894;2023-02-01T02:00:30;38.73;32.67;56.81;;
66399;Laerm;54877;51.504;3.894;2023-02-01T02:03:00;37.02;31.25;47.73;;
66399;Laerm;54877;51.504;3.894;2023-02-01T02:05:28;40.25;31.38;55.80;;
66399;Laerm;54877;51.504;3.894;2023-02-01T02:07:54;36.36;30.87;45.87;;
66399;Laerm;54877;51.504;3.894;2023-02-01T02:10:23;35.58;30.80;44.90;;
66399;Laerm;54877;51.504;3.894;2023-02-01T02:13:08;36.44;30.29;50.15;;
66399;Laerm;54877;51.504;3.894;2023-02-01T02:15:34;42.82;31.65;60.31;;
66399;Laerm;54877;51.504;3.894;2023-02-01T02:18:04;35.89;31.29;48.31;;
66399;Laerm;54877;51.504;3.894;2023-02-01T02:28:37;35.11;31.74;43.57;;
66399;Laerm;54877;51.504;3.894;2023-02-01T02:36:23;40.16;31.50;58.88;;
66399;Laerm;54877;51.504;3.894;2023-02-01T02:38:58;36.65;30.83;46.18;;
66399;Laerm;54877;51.504;3.894;2023-02-01T02:42:12;36.49;31.44;45.84;;
66399;Laerm;54877;51.504;3.894;2023-02-01T02:53:08;36.01;31.42;45.31;;
66399;Laerm;54877;51.504;3.894;2023-02-01T02:55:53;38.09;32.59;51.33;;
66399;Laerm;54877;51.504;3.894;2023-02-01T02:58:38;38.09;31.88;49.87;;
66399;Laerm;54877;51.504;3.894;2023-02-01T03:01:22;36.65;31.59;49.36;;
66399;Laerm;54877;51.504;3.894;2023-02-01T03:04:06;38.23;31.68;55.25;;
66399;Laerm;54877;51.504;3.894;2023-02-01T03:06:33;37.89;32.12;51.95;;
66399;Laerm;54877;51.504;3.894;2023-02-01T03:08:59;36.60;31.92;50.14;;
66399;Laerm;54877;51.504;3.894;2023-02-01T03:11:26;37.70;32.44;55.18;;
66399;Laerm;54877;51.504;3.894;2023-02-01T03:14:12;38.89;32.84;55.03;;
66399;Laerm;54877;51.504;3.894;2023-02-01T03:22:41;36.29;31.82;47.15;;
66399;Laerm;54877;51.504;3.894;2023-02-01T03:24:42;36.24;31.78;45.66;;
66399;Laerm;54877;51.504;3.894;2023-02-01T03:32:09;36.52;31.96;49.56;;
66399;Laerm;54877;51.504;3.894;2023-02-01T03:34:34;35.45;31.91;42.68;;
66399;Laerm;54877;51.504;3.894;2023-02-01T03:37:04;36.39;32.29;50.98;;
66399;Laerm;54877;51.504;3.894;2023-02-01T03:39:32;44.92;32.28;65.91;;
66399;Laerm;54877;51.504;3.894;2023-02-01T03:42:00;35.94;32.63;41.56;;
66399;Laerm;54877;51.504;3.894;2023-02-01T03:44:29;36.88;32.66;46.18;;
66399;Laerm;54877;51.504;3.894;2023-02-01T03:49:28;35.39;32.72;44.24;;
66399;Laerm;54877;51.504;3.894;2023-02-01T03:51:54;36.24;32.48;44.92;;
66399;Laerm;54877;51.504;3.894;2023-02-01T03:54:20;35.29;32.56;42.36;;
66399;Laerm;54877;51.504;3.894;2023-02-01T03:56:47;36.29;32.83;46.63;;
66399;Laerm;54877;51.504;3.894;2023-02-01T03:59:13;35.79;32.62;42.48;;
66399;Laerm;54877;51.504;3.894;2023-02-01T04:01:38;36.02;32.47;43.63;;
66399;Laerm;54877;51.504;3.894;2023-02-01T04:04:04;36.38;32.84;43.08;;
66399;Laerm;54877;51.504;3.894;2023-02-01T04:06:29;36.24;33.15;45.87;;
66399;Laerm;54877;51.504;3.894;2023-02-01T04:08:54;37.33;33.34;55.12;;
66399;Laerm;54877;51.504;3.894;2023-02-01T04:11:19;37.92;33.31;50.27;;
66399;Laerm;54877;51.504;3.894;2023-02-01T04:13:44;39.52;33.92;56.53;;
66399;Laerm;54877;51.504;3.894;2023-02-01T04:16:10;38.61;33.59;52.05;;
66399;Laerm;54877;51.504;3.894;2023-02-01T04:18:35;36.76;34.01;46.56;;
66399;Laerm;54877;51.504;3.894;2023-02-01T04:21:00;36.70;33.72;45.03;;
66399;Laerm;54877;51.504;3.894;2023-02-01T04:23:27;50.32;33.80;69.30;;
66399;Laerm;54877;51.504;3.894;2023-02-01T04:25:52;40.95;34.13;61.53;;
66399;Laerm;54877;51.504;3.894;2023-02-01T04:28:18;37.57;33.61;48.98;;
66399;Laerm;54877;51.504;3.894;2023-02-01T04:30:43;37.95;34.26;49.32;;
66399;Laerm;54877;51.504;3.894;2023-02-01T04:33:08;42.07;35.04;53.61;;
66399;Laerm;54877;51.504;3.894;2023-02-01T04:35:34;40.36;35.07;51.57;;
66399;Laerm;54877;51.504;3.894;2023-02-01T04:37:59;39.42;34.34;48.86;;
66399;Laerm;54877;51.504;3.894;2023-02-01T04:40:24;38.66;34.63;52.21;;
66399;Laerm;54877;51.504;3.894;2023-02-01T04:42:49;38.76;34.32;52.74;;
66399;Laerm;54877;51.504;3.894;2023-02-01T04:45:15;37.56;33.82;46.51;;
66399;Laerm;54877;51.504;3.894;2023-02-01T04:47:40;37.45;34.03;48.10;;
66399;Laerm;54877;51.504;3.894;2023-02-01T04:50:05;41.96;35.28;53.06;;
66399;Laerm;54877;51.504;3.894;2023-02-01T04:52:32;38.60;35.03;46.48;;
66399;Laerm;54877;51.504;3.894;2023-02-01T04:54:57;38.23;34.57;47.83;;
66399;Laerm;54877;51.504;3.894;2023-02-01T04:57:24;51.02;35.12;69.60;;
66399;Laerm;54877;51.504;3.894;2023-02-01T04:59:49;38.74;35.75;46.50;;
66399;Laerm;54877;51.504;3.894;2023-02-01T05:02:14;39.23;34.76;54.42;;
66399;Laerm;54877;51.504;3.894;2023-02-01T05:04:40;39.29;35.08;58.94;;
66399;Laerm;54877;51.504;3.894;2023-02-01T05:07:05;40.34;35.54;55.85;;
66399;Laerm;54877;51.504;3.894;2023-02-01T05:09:30;38.65;35.14;48.10;;
66399;Laerm;54877;51.504;3.894;2023-02-01T05:11:56;41.25;36.01;53.98;;
66399;Laerm;54877;51.504;3.894;2023-02-01T05:14:40;40.37;36.48;48.32;;
66399;Laerm;54877;51.504;3.894;2023-02-01T05:17:05;40.93;36.58;53.24;;
66399;Laerm;54877;51.504;3.894;2023-02-01T05:19:30;41.44;37.57;56.60;;
66399;Laerm;54877;51.504;3.894;2023-02-01T05:21:55;40.20;36.94;45.16;;
66399;Laerm;54877;51.504;3.894;2023-02-01T05:24:20;54.25;37.08;72.39;;
66399;Laerm;54877;51.504;3.894;2023-02-01T05:26:46;53.84;36.50;72.27;;
66399;Laerm;54877;51.504;3.894;2023-02-01T05:29:12;43.15;38.68;51.71;;
66399;Laerm;54877;51.504;3.894;2023-02-01T05:31:38;44.02;37.90;61.49;;
66399;Laerm;54877;51.504;3.894;2023-02-01T05:34:03;46.01;38.27;63.13;;
66399;Laerm;54877;51.504;3.894;2023-02-01T05:36:28;44.49;38.40;57.86;;
66399;Laerm;54877;51.504;3.894;2023-02-01T05:38:54;43.76;38.07;53.97;;
66399;Laerm;54877;51.504;3.894;2023-02-01T05:41:19;43.34;38.12;54.30;;
66399;Laerm;54877;51.504;3.894;2023-02-01T05:43:44;42.78;37.29;56.33;;
66399;Laerm;54877;51.504;3.894;2023-02-01T05:46:09;43.49;37.77;56.41;;
66399;Laerm;54877;51.504;3.894;2023-02-01T05:48:37;56.89;38.73;74.67;;
66399;Laerm;54877;51.504;3.894;2023-02-01T05:51:02;43.41;36.93;58.28;;
66399;Laerm;54877;51.504;3.894;2023-02-01T05:53:27;55.47;36.99;73.83;;
66399;Laerm;54877;51.504;3.894;2023-02-01T05:55:53;53.47;37.54;72.26;;
66399;Laerm;54877;51.504;3.894;2023-02-01T05:58:18;49.80;38.16;76.62;;
66399;Laerm;54877;51.504;3.894;2023-02-01T06:00:43;42.41;38.18;47.75;;
66399;Laerm;54877;51.504;3.894;2023-02-01T06:03:08;53.04;37.87;71.06;;
66399;Laerm;54877;51.504;3.894;2023-02-01T06:05:33;43.58;38.23;57.51;;
66399;Laerm;54877;51.504;3.894;2023-02-01T06:07:59;55.23;38.04;73.65;;
66399;Laerm;54877;51.504;3.894;2023-02-01T06:10:24;42.78;37.29;58.21;;
66399;Laerm;54877;51.504;3.894;2023-02-01T06:12:49;40.75;37.80;48.32;;
66399;Laerm;54877;51.504;3.894;2023-02-01T06:15:15;57.79;38.85;77.08;;
66399;Laerm;54877;51.504;3.894;2023-02-01T06:17:41;43.92;38.49;51.39;;
66399;Laerm;54877;51.504;3.894;2023-02-01T06:20:08;41.66;37.79;49.77;;
66399;Laerm;54877;51.504;3.894;2023-02-01T06:22:33;53.19;38.71;70.93;;
66399;Laerm;54877;51.504;3.894;2023-02-01T06:25:00;42.55;39.49;47.81;;
66399;Laerm;54877;51.504;3.894;2023-02-01T06:27:26;56.88;38.77;76.66;;
66399;Laerm;54877;51.504;3.894;2023-02-01T06:29:51;52.24;39.80;70.35;;
66399;Laerm;54877;51.504;3.894;2023-02-01T06:32:16;58.10;39.28;77.47;;
66399;Laerm;54877;51.504;3.894;2023-02-01T06:34:42;52.40;39.60;69.17;;
66399;Laerm;54877;51.504;3.894;2023-02-01T06:37:07;48.52;39.79;69.58;;
66399;Laerm;54877;51.504;3.894;2023-02-01T06:39:32;53.68;40.08;71.82;;
66399;Laerm;54877;51.504;3.894;2023-02-01T06:41:58;56.36;39.99;74.40;;
66399;Laerm;54877;51.504;3.894;2023-02-01T06:44:23;44.72;40.33;56.58;;
66399;Laerm;54877;51.504;3.894;2023-02-01T06:46:48;49.85;39.96;66.31;;
66399;Laerm;54877;51.504;3.894;2023-02-01T06:49:13;54.89;40.46;75.27;;
66399;Laerm;54877;51.504;3.894;2023-02-01T06:51:39;47.64;40.82;63.09;;
66399;Laerm;54877;51.504;3.894;2023-02-01T06:54:04;53.96;40.64;71.07;;
66399;Laerm;54877;51.504;3.894;2023-02-01T06:56:29;53.31;40.08;68.93;;
66399;Laerm;54877;51.504;3.894;2023-02-01T06:58:56;43.89;39.30;52.59;;
66399;Laerm;54877;51.504;3.894;2023-02-01T07:01:21;52.04;40.33;68.21;;
66399;Laerm;54877;51.504;3.894;2023-02-01T07:03:47;48.55;40.87;72.65;;
66399;Laerm;54877;51.504;3.894;2023-02-01T07:06:12;48.01;41.03;59.72;;
66399;Laerm;54877;51.504;3.894;2023-02-01T07:08:37;45.50;40.03;57.12;;
66399;Laerm;54877;51.504;3.894;2023-02-01T07:11:03;53.19;41.31;70.58;;
66399;Laerm;54877;51.504;3.894;2023-02-01T07:13:29;56.58;42.28;77.07;;
66399;Laerm;54877;51.504;3.894;2023-02-01T07:15:57;47.88;41.67;67.47;;
66399;Laerm;54877;51.504;3.894;2023-02-01T07:18:22;54.26;42.22;71.56;;
66399;Laerm;54877;51.504;3.894;2023-02-01T07:20:49;54.36;41.67;69.72;;
66399;Laerm;54877;51.504;3.894;2023-02-01T07:23:15;58.20;42.86;73.45;;
66399;Laerm;54877;51.504;3.894;2023-02-01T07:25:40;59.28;42.63;73.51;;
66399;Laerm;54877;51.504;3.894;2023-02-01T07:28:05;60.72;41.75;78.92;;
66399;Laerm;54877;51.504;3.894;2023-02-01T07:30:30;53.02;41.31;70.97;;
66399;Laerm;54877;51.504;3.894;2023-02-01T07:32:55;61.73;42.06;77.86;;
66399;Laerm;54877;51.504;3.894;2023-02-01T07:35:24;54.78;42.12;73.04;;
66399;Laerm;54877;51.504;3.894;2023-02-01T07:37:49;57.49;41.91;77.48;;
66399;Laerm;54877;51.504;3.894;2023-02-01T07:40:14;55.88;42.54;73.18;;
66399;Laerm;54877;51.504;3.894;2023-02-01T07:42:39;46.54;41.98;61.27;;
66399;Laerm;54877;51.504;3.894;2023-02-01T07:45:05;53.94;40.95;74.77;;
66399;Laerm;54877;51.504;3.894;2023-02-01T07:47:30;47.77;40.53;69.61;;
66399;Laerm;54877;51.504;3.894;2023-02-01T07:49:55;52.02;41.68;69.00;;
66399;Laerm;54877;51.504;3.894;2023-02-01T07:52:21;54.20;40.80;70.46;;
66399;Laerm;54877;51.504;3.894;2023-02-01T07:54:46;47.40;42.22;57.24;;
66399;Laerm;54877;51.504;3.894;2023-02-01T07:57:11;58.88;42.45;74.79;;
66399;Laerm;54877;51.504;3.894;2023-02-01T07:59:38;46.09;40.83;60.89;;
66399;Laerm;54877;51.504;3.894;2023-02-01T08:02:23;46.53;40.65;65.05;;
66399;Laerm;54877;51.504;3.894;2023-02-01T08:04:48;58.33;40.94;77.65;;
66399;Laerm;54877;51.504;3.894;2023-02-01T08:07:13;50.82;41.13;66.56;;
66399;Laerm;54877;51.504;3.894;2023-02-01T08:09:39;57.51;42.79;73.09;;
66399;Laerm;54877;51.504;3.894;2023-02-01T08:12:04;46.28;40.52;60.54;;
66399;Laerm;54877;51.504;3.894;2023-02-01T08:14:29;49.24;42.40;61.30;;
66399;Laerm;54877;51.504;3.894;2023-02-01T08:16:54;50.50;41.63;64.09;;
66399;Laerm;54877;51.504;3.894;2023-02-01T08:19:20;49.49;40.36;66.85;;
66399;Laerm;54877;51.504;3.894;2023-02-01T08:21:45;49.56;41.22;73.46;;
66399;Laerm;54877;51.504;3.894;2023-02-01T08:24:11;47.14;41.40;63.14;;
66399;Laerm;54877;51.504;3.894;2023-02-01T08:26:36;58.65;40.34;77.16;;
66399;Laerm;54877;51.504;3.894;2023-02-01T08:29:02;55.22;40.64;74.60;;
66399;Laerm;54877;51.504;3.894;2023-02-01T08:31:28;46.87;40.43;65.69;;
66399;Laerm;54877;51.504;3.894;2023-02-01T08:33:55;57.09;40.65;77.80;;
66399;Laerm;54877;51.504;3.894;2023-02-01T08:36:20;50.27;40.54;68.35;;
66399;Laerm;54877;51.504;3.894;2023-02-01T08:38:46;44.48;39.88;56.37;;
66399;Laerm;54877;51.504;3.894;2023-02-01T08:41:21;54.80;39.29;73.20;;
66399;Laerm;54877;51.504;3.894;2023-02-01T08:43:47;55.53;40.49;75.07;;
66399;Laerm;54877;51.504;3.894;2023-02-01T08:46:13;48.64;40.78;66.22;;
66399;Laerm;54877;51.504;3.894;2023-02-01T08:48:38;49.41;40.73;71.07;;
66399;Laerm;54877;51.504;3.894;2023-02-01T08:51:05;46.49;41.52;58.40;;
66399;Laerm;54877;51.504;3.894;2023-02-01T08:53:30;47.03;40.74;65.59;;
66399;Laerm;54877;51.504;3.894;2023-02-01T08:55:56;47.68;40.09;65.85;;
66399;Laerm;54877;51.504;3.894;2023-02-01T08:58:21;52.75;40.74;71.09;;
66399;Laerm;54877;51.504;3.894;2023-02-01T09:00:46;56.52;40.28;76.21;;
66399;Laerm;54877;51.504;3.894;2023-02-01T09:03:13;46.24;38.88;60.29;;
66399;Laerm;54877;51.504;3.894;2023-02-01T09:05:38;44.48;39.66;58.78;;
66399;Laerm;54877;51.504;3.894;2023-02-01T09:08:04;49.58;39.66;63.35;;
66399;Laerm;54877;51.504;3.894;2023-02-01T09:10:30;54.23;40.26;70.64;;
66399;Laerm;54877;51.504;3.894;2023-02-01T09:12:55;47.42;40.70;65.48;;
66399;Laerm;54877;51.504;3.894;2023-02-01T09:15:20;58.29;40.43;74.49;;
66399;Laerm;54877;51.504;3.894;2023-02-01T09:17:45;57.28;40.43;75.93;;
66399;Laerm;54877;51.504;3.894;2023-02-01T09:20:11;45.37;40.15;60.81;;
66399;Laerm;54877;51.504;3.894;2023-02-01T09:22:36;46.74;40.43;63.59;;
66399;Laerm;54877;51.504;3.894;2023-02-01T09:25:01;47.67;40.71;70.77;;
66399;Laerm;54877;51.504;3.894;2023-02-01T09:27:26;49.87;41.66;67.03;;
66399;Laerm;54877;51.504;3.894;2023-02-01T09:29:52;54.97;41.04;72.15;;
66399;Laerm;54877;51.504;3.894;2023-02-01T09:32:18;57.74;41.58;88.98;;
66399;Laerm;54877;51.504;3.894;2023-02-01T09:34:44;48.05;40.92;60.58;;
66399;Laerm;54877;51.504;3.894;2023-02-01T09:37:09;51.28;41.01;67.30;;
66399;Laerm;54877;51.504;3.894;2023-02-01T09:39:34;55.64;41.49;73.46;;
66399;Laerm;54877;51.504;3.894;2023-02-01T09:46:59;46.89;41.54;62.11;;
66399;Laerm;54877;51.504;3.894;2023-02-01T09:49:31;46.38;41.24;64.98;;
66399;Laerm;54877;51.504;3.894;2023-02-01T09:51:59;48.69;41.89;75.75;;
66399;Laerm;54877;51.504;3.894;2023-02-01T09:54:26;51.04;41.68;65.52;;
66399;Laerm;54877;51.504;3.894;2023-02-01T09:57:00;54.67;42.19;68.51;;
66399;Laerm;54877;51.504;3.894;2023-02-01T09:59:53;59.04;42.29;83.28;;
66399;Laerm;54877;51.504;3.894;2023-02-01T10:02:23;49.05;41.59;72.45;;
66399;Laerm;54877;51.504;3.894;2023-02-01T10:04:49;49.47;41.72;63.57;;
66399;Laerm;54877;51.504;3.894;2023-02-01T10:22:41;55.09;40.12;71.60;;
66399;Laerm;54877;51.504;3.894;2023-02-01T10:25:12;49.53;41.15;68.67;;
66399;Laerm;54877;51.504;3.894;2023-02-01T10:27:38;48.87;42.19;60.33;;
66399;Laerm;54877;51.504;3.894;2023-02-01T10:30:16;59.49;43.61;78.94;;
66399;Laerm;54877;51.504;3.894;2023-02-01T10:32:43;50.52;40.95;64.85;;
66399;Laerm;54877;51.504;3.894;2023-02-01T10:35:11;56.20;41.67;76.43;;
66399;Laerm;54877;51.504;3.894;2023-02-01T10:37:37;51.13;41.74;67.09;;
66399;Laerm;54877;51.504;3.894;2023-02-01T10:40:16;49.03;41.17;64.54;;
66399;Laerm;54877;51.504;3.894;2023-02-01T10:42:42;47.89;41.92;65.11;;
66399;Laerm;54877;51.504;3.894;2023-02-01T10:45:11;57.29;41.11;76.10;;
66399;Laerm;54877;51.504;3.894;2023-02-01T10:47:38;48.44;40.89;64.79;;
66399;Laerm;54877;51.504;3.894;2023-02-01T10:57:59;53.99;41.71;71.65;;
66399;Laerm;54877;51.504;3.894;2023-02-01T11:00:25;55.09;41.92;76.65;;
66399;Laerm;54877;51.504;3.894;2023-02-01T11:02:50;57.73;43.20;71.88;;
66399;Laerm;54877;51.504;3.894;2023-02-01T11:05:16;51.60;42.14;71.90;;
66399;Laerm;54877;51.504;3.894;2023-02-01T11:07:47;53.44;42.32;69.84;;
66399;Laerm;54877;51.504;3.894;2023-02-01T11:10:46;57.84;40.29;78.00;;
66399;Laerm;54877;51.504;3.894;2023-02-01T11:13:08;47.73;40.49;66.88;;
66399;Laerm;54877;51.504;3.894;2023-02-01T11:15:36;52.52;40.90;71.25;;
66399;Laerm;54877;51.504;3.894;2023-02-01T11:18:08;48.92;43.30;61.11;;
66399;Laerm;54877;51.504;3.894;2023-02-01T11:20:38;49.35;42.51;62.74;;
66399;Laerm;54877;51.504;3.894;2023-02-01T11:23:05;52.63;40.73;68.85;;
66399;Laerm;54877;51.504;3.894;2023-02-01T11:25:31;47.69;42.17;62.59;;
66399;Laerm;54877;51.504;3.894;2023-02-01T11:27:57;46.63;39.82;66.18;;
66399;Laerm;54877;51.504;3.894;2023-02-01T11:30:30;55.35;42.68;73.62;;
66399;Laerm;54877;51.504;3.894;2023-02-01T11:32:56;53.95;41.18;83.28;;
66399;Laerm;54877;51.504;3.894;2023-02-01T11:35:22;49.38;41.52;64.24;;
66399;Laerm;54877;51.504;3.894;2023-02-01T11:37:55;48.10;40.26;66.56;;
66399;Laerm;54877;51.504;3.894;2023-02-01T11:40:28;46.12;39.32;61.69;;
66399;Laerm;54877;51.504;3.894;2023-02-01T11:47:44;57.91;42.92;73.97;;
66399;Laerm;54877;51.504;3.894;2023-02-01T11:50:25;54.74;40.52;71.59;;
66399;Laerm;54877;51.504;3.894;2023-02-01T12:08:42;48.23;40.26;64.45;;
66399;Laerm;54877;51.504;3.894;2023-02-01T12:34:06;51.21;39.43;80.03;;
66399;Laerm;54877;51.504;3.894;2023-02-01T12:36:41;50.96;41.63;71.87;;
66399;Laerm;54877;51.504;3.894;2023-02-01T12:41:47;55.47;41.53;73.35;;
66399;Laerm;54877;51.504;3.894;2023-02-01T12:44:20;54.53;42.99;76.11;;
66399;Laerm;54877;51.504;3.894;2023-02-01T12:46:50;57.55;42.30;76.06;;
66399;Laerm;54877;51.504;3.894;2023-02-01T12:49:19;53.31;42.22;75.36;;
66399;Laerm;54877;51.504;3.894;2023-02-01T12:51:50;59.02;42.64;75.39;;
66399;Laerm;54877;51.504;3.894;2023-02-01T12:54:22;57.47;41.95;76.67;;
66399;Laerm;54877;51.504;3.894;2023-02-01T12:56:55;58.73;42.04;77.49;;
66399;Laerm;54877;51.504;3.894;2023-02-01T12:59:24;60.85;42.34;79.67;;
66399;Laerm;54877;51.504;3.894;2023-02-01T13:01:56;48.57;39.89;66.38;;
66399;Laerm;54877;51.504;3.894;2023-02-01T13:04:34;51.98;41.18;62.75;;
66399;Laerm;54877;51.504;3.894;2023-02-01T13:12:12;59.12;44.34;75.29;;
66399;Laerm;54877;51.504;3.894;2023-02-01T13:14:41;57.50;44.16;77.49;;
66399;Laerm;54877;51.504;3.894;2023-02-01T13:17:12;53.67;42.95;70.68;;
66399;Laerm;54877;51.504;3.894;2023-02-01T13:22:13;55.76;41.78;74.01;;
66399;Laerm;54877;51.504;3.894;2023-02-01T13:24:45;56.67;41.70;74.19;;
66399;Laerm;54877;51.504;3.894;2023-02-01T13:27:12;56.66;44.25;75.68;;
66399;Laerm;54877;51.504;3.894;2023-02-01T13:29:38;55.94;42.95;71.00;;
66399;Laerm;54877;51.504;3.894;2023-02-01T13:34:49;50.39;43.93;72.22;;
66399;Laerm;54877;51.504;3.894;2023-02-01T13:37:35;52.52;44.92;75.85;;
66399;Laerm;54877;51.504;3.894;2023-02-01T13:42:55;58.85;44.04;75.69;;
66399;Laerm;54877;51.504;3.894;2023-02-01T13:47:50;50.82;42.55;67.04;;
66399;Laerm;54877;51.504;3.894;2023-02-01T13:52:50;52.70;42.18;70.22;;
66399;Laerm;54877;51.504;3.894;2023-02-01T13:57:44;53.85;42.68;73.39;;
66399;Laerm;54877;51.504;3.894;2023-02-01T14:21:20;53.81;42.81;70.81;;
66399;Laerm;54877;51.504;3.894;2023-02-01T14:23:44;56.07;41.96;70.11;;
66399;Laerm;54877;51.504;3.894;2023-02-01T14:26:13;50.25;40.98;66.82;;
66399;Laerm;54877;51.504;3.894;2023-02-01T14:28:40;55.30;40.85;71.36;;
66399;Laerm;54877;51.504;3.894;2023-02-01T14:31:26;47.90;39.71;63.66;;
66399;Laerm;54877;51.504;3.894;2023-02-01T14:33:57;48.66;40.32;67.58;;
66399;Laerm;54877;51.504;3.894;2023-02-01T14:36:24;57.82;39.17;76.62;;
66399;Laerm;54877;51.504;3.894;2023-02-01T14:38:49;50.35;40.84;64.84;;
66399;Laerm;54877;51.504;3.894;2023-02-01T14:41:26;56.75;40.53;73.84;;
66399;Laerm;54877;51.504;3.894;2023-02-01T14:49:11;49.83;40.26;80.28;;
66399;Laerm;54877;51.504;3.894;2023-02-01T14:51:37;59.02;41.39;78.61;;
66399;Laerm;54877;51.504;3.894;2023-02-01T14:54:03;45.05;39.79;64.03;;
66399;Laerm;54877;51.504;3.894;2023-02-01T14:56:28;58.25;41.34;74.30;;
66399;Laerm;54877;51.504;3.894;2023-02-01T14:59:00;47.03;39.29;67.41;;
66399;Laerm;54877;51.504;3.894;2023-02-01T15:04:04;55.95;39.41;74.85;;
66399;Laerm;54877;51.504;3.894;2023-02-01T15:09:00;58.68;38.96;78.23;;
66399;Laerm;54877;51.504;3.894;2023-02-01T15:11:27;46.92;39.38;69.49;;
66399;Laerm;54877;51.504;3.894;2023-02-01T15:13:53;53.52;37.71;72.11;;
66399;Laerm;54877;51.504;3.894;2023-02-01T15:16:20;47.82;39.36;64.21;;
66399;Laerm;54877;51.504;3.894;2023-02-01T15:18:45;45.29;39.42;64.37;;
66399;Laerm;54877;51.504;3.894;2023-02-01T15:21:18;54.84;38.56;71.52;;
66399;Laerm;54877;51.504;3.894;2023-02-01T15:23:45;54.31;39.52;72.29;;
66399;Laerm;54877;51.504;3.894;2023-02-01T15:26:24;48.16;39.30;63.50;;
66399;Laerm;54877;51.504;3.894;2023-02-01T15:28:49;51.84;40.94;69.46;;
66399;Laerm;54877;51.504;3.894;2023-02-01T15:31:14;44.70;38.80;56.80;;
66399;Laerm;54877;51.504;3.894;2023-02-01T15:33:40;43.81;39.17;57.88;;
66399;Laerm;54877;51.504;3.894;2023-02-01T15:36:20;59.04;40.15;76.88;;
66399;Laerm;54877;51.504;3.894;2023-02-01T15:38:47;57.42;41.26;75.58;;
66399;Laerm;54877;51.504;3.894;2023-02-01T15:41:13;53.60;38.79;69.38;;
66399;Laerm;54877;51.504;3.894;2023-02-01T15:43:40;55.21;38.64;74.25;;
66399;Laerm;54877;51.504;3.894;2023-02-01T15:46:08;48.43;39.52;61.93;;
66399;Laerm;54877;51.504;3.894;2023-02-01T15:48:38;46.41;39.59;65.84;;
66399;Laerm;54877;51.504;3.894;2023-02-01T15:51:04;53.05;38.66;70.66;;
66399;Laerm;54877;51.504;3.894;2023-02-01T15:53:29;48.82;38.62;68.30;;
66399;Laerm;54877;51.504;3.894;2023-02-01T15:55:58;56.10;40.96;71.97;;
66399;Laerm;54877;51.504;3.894;2023-02-01T15:58:24;44.88;38.40;58.37;;
66399;Laerm;54877;51.504;3.894;2023-02-01T16:00:55;54.05;38.35;71.60;;
66399;Laerm;54877;51.504;3.894;2023-02-01T16:03:25;47.63;39.24;69.82;;
66399;Laerm;54877;51.504;3.894;2023-02-01T16:05:54;57.94;38.58;73.30;;
66399;Laerm;54877;51.504;3.894;2023-02-01T16:08:21;57.01;40.65;73.19;;
66399;Laerm;54877;51.504;3.894;2023-02-01T16:10:49;55.80;40.18;71.52;;
66399;Laerm;54877;51.504;3.894;2023-02-01T16:13:15;58.83;38.67;76.18;;
66399;Laerm;54877;51.504;3.894;2023-02-01T16:15:41;51.97;38.54;68.40;;
66399;Laerm;54877;51.504;3.894;2023-02-01T16:18:07;48.95;39.31;68.96;;
66399;Laerm;54877;51.504;3.894;2023-02-01T16:20:36;43.07;38.64;60.80;;
66399;Laerm;54877;51.504;3.894;2023-02-01T16:23:02;57.59;39.45;76.10;;
66399;Laerm;54877;51.504;3.894;2023-02-01T16:25:27;54.99;39.54;71.96;;
66399;Laerm;54877;51.504;3.894;2023-02-01T16:27:52;53.97;39.52;68.33;;
66399;Laerm;54877;51.504;3.894;2023-02-01T16:30:17;58.35;38.44;74.26;;